Terminal Aerodrome Forecast
Issued by NWS Charleston, WV

Current Version | Previous Version | Text Only | Print | Product List | Glossary Off
Versions: 1 2 3 4 5 6 7 8 9 10 11 12 13 14 15 16 17 18 19 20 21 22 23 24 25 26 27

451
FTUS41 KRLX 152325
TAFBKW
TAF
KBKW 152325Z 1600/1624 20010KT P6SM BKN070
     FM160900 22004KT P6SM OVC090
     FM161200 28004KT P6SM OVC035
     FM161400 28005KT 4SM -SHSN OVC030
     FM161500 28005KT 1SM -SHSN OVC016=

USA.gov is the U.S. government's official web portal to all federal, state and local government web resources and services.